createdAt,value
2018-12-26T00:02:24.590Z,33.40
2018-12-26T00:04:55.514Z,26.17
2018-12-26T00:07:26.455Z,27.20
2018-12-26T00:09:57.441Z,27.30
2018-12-26T00:12:28.659Z,30.30
2018-12-26T00:14:59.559Z,31.33
2018-12-26T00:17:30.864Z,32.40
2018-12-26T00:20:01.890Z,31.00
2018-12-26T00:22:32.913Z,24.30
2018-12-26T00:25:03.912Z,27.13
2018-12-26T00:27:34.879Z,28.90
2018-12-26T00:30:06.011Z,29.93
2018-12-26T00:32:37.287Z,33.20
2018-12-26T00:35:08.269Z,27.53
2018-12-26T00:37:39.509Z,30.97
2018-12-26T00:40:10.388Z,25.40
2018-12-26T00:42:41.608Z,26.17
2018-12-26T00:45:12.484Z,26.43
2018-12-26T00:47:43.425Z,27.73
2018-12-26T00:50:14.320Z,26.77
2018-12-26T00:52:45.318Z,28.27
2018-12-26T00:55:16.219Z,31.73
2018-12-26T00:57:47.128Z,25.43
2018-12-26T01:00:18.360Z,28.37
2018-12-26T01:02:49.320Z,26.37
2018-12-26T01:05:20.207Z,24.60
2018-12-26T01:07:51.134Z,22.27
2018-12-26T01:10:22.308Z,27.53
2018-12-26T01:12:53.245Z,24.40
2018-12-26T01:15:24.125Z,25.17
2018-12-26T01:17:55.009Z,26.90
2018-12-26T01:20:25.957Z,27.40
2018-12-26T01:22:56.851Z,28.03
2018-12-26T01:25:27.811Z,28.97
2018-12-26T01:27:58.680Z,26.80
2018-12-26T01:30:35.542Z,26.10
2018-12-26T01:33:06.462Z,23.87
2018-12-26T01:35:37.380Z,27.30
2018-12-26T01:38:08.340Z,29.37
2018-12-26T01:40:39.225Z,25.97
2018-12-26T01:43:10.459Z,21.30
2018-12-26T01:45:41.329Z,24.70
2018-12-26T01:48:12.204Z,22.40
2018-12-26T01:50:43.105Z,21.80
2018-12-26T01:53:13.984Z,18.70
2018-12-26T01:55:44.924Z,22.17
2018-12-26T01:58:15.802Z,25.53
2018-12-26T02:00:46.714Z,20.73
2018-12-26T02:03:17.616Z,26.50
2018-12-26T02:05:48.781Z,21.43
2018-12-26T02:08:19.861Z,22.00
2018-12-26T02:10:50.775Z,23.33
2018-12-26T02:13:21.709Z,27.90
2018-12-26T02:15:52.596Z,23.70
2018-12-26T02:18:23.468Z,27.53
2018-12-26T02:20:56.109Z,23.33
2018-12-26T02:23:27.027Z,22.70
2018-12-26T02:25:58.239Z,24.10
2018-12-26T02:28:29.160Z,26.90
2018-12-26T02:31:00.095Z,20.33
2018-12-26T02:33:31.370Z,23.63
2018-12-26T02:36:02.257Z,23.90
2018-12-26T02:38:33.177Z,31.00
2018-12-26T02:41:04.058Z,24.10
2018-12-26T02:43:35.308Z,26.73
2018-12-26T02:46:06.196Z,23.30
2018-12-26T02:48:37.112Z,22.57
2018-12-26T02:51:08.343Z,21.90
2018-12-26T02:53:39.233Z,23.57
2018-12-26T02:56:10.444Z,25.50
2018-12-26T02:58:41.616Z,23.53
2018-12-26T03:01:12.612Z,22.43
2018-12-26T03:03:43.591Z,26.10
2018-12-26T03:06:14.794Z,27.70
2018-12-26T03:08:45.716Z,23.30
2018-12-26T03:11:16.880Z,21.80
2018-12-26T03:13:48.494Z,25.47
2018-12-26T03:16:19.625Z,28.93
2018-12-26T03:18:50.578Z,28.17
2018-12-26T03:21:21.457Z,26.23
2018-12-26T03:23:52.632Z,24.30
2018-12-26T03:26:23.550Z,24.00
2018-12-26T03:28:54.491Z,20.10
2018-12-26T03:31:25.429Z,21.30
2018-12-26T03:33:56.308Z,19.83
2018-12-26T03:36:27.290Z,26.90
2018-12-26T03:38:59.667Z,22.83
2018-12-26T03:41:31.532Z,18.63
2018-12-26T03:44:02.727Z,21.37
2018-12-26T03:46:35.707Z,26.37
2018-12-26T03:49:06.689Z,20.53
2018-12-26T03:51:37.863Z,25.77
2018-12-26T03:54:08.789Z,24.70
2018-12-26T03:56:39.669Z,24.07
2018-12-26T03:59:10.548Z,29.03
2018-12-26T04:01:41.433Z,25.43
2018-12-26T04:04:12.310Z,20.80
2018-12-26T04:06:43.597Z,25.40
2018-12-26T04:09:14.510Z,26.20
2018-12-26T04:11:45.579Z,29.03
2018-12-26T04:14:16.499Z,24.80
2018-12-26T04:16:47.422Z,21.07
2018-12-26T04:19:18.851Z,21.37
2018-12-26T04:21:49.795Z,27.50
2018-12-26T04:24:20.782Z,30.37
2018-12-26T04:26:51.986Z,30.43
2018-12-26T04:29:22.900Z,26.70
2018-12-26T04:31:54.109Z,25.50
2018-12-26T04:34:25.258Z,24.10
2018-12-26T04:36:56.137Z,26.57
2018-12-26T04:39:27.067Z,27.43
2018-12-26T04:41:58.060Z,25.17
2018-12-26T04:44:29.050Z,28.53
2018-12-26T04:46:59.942Z,30.87
2018-12-26T04:49:30.934Z,27.50
2018-12-26T04:52:01.906Z,29.67
2018-12-26T04:54:33.124Z,29.70
2018-12-26T04:57:04.024Z,26.20
2018-12-26T04:59:35.283Z,32.57
2018-12-26T05:02:06.289Z,31.37
2018-12-26T05:04:37.179Z,34.03
2018-12-26T05:07:08.093Z,33.33
2018-12-26T05:09:39.295Z,37.30
2018-12-26T05:12:10.176Z,38.47
2018-12-26T05:14:41.102Z,39.47
2018-12-26T05:17:12.017Z,36.33
2018-12-26T05:19:42.933Z,31.50
2018-12-26T05:22:13.833Z,36.80
2018-12-26T05:24:45.132Z,35.60
2018-12-26T05:27:16.025Z,37.10
2018-12-26T05:29:46.924Z,35.97
2018-12-26T05:32:17.938Z,44.17
2018-12-26T05:34:49.168Z,36.23
2018-12-26T05:37:20.045Z,33.53
2018-12-26T05:39:51.005Z,38.77
2018-12-26T05:42:22.232Z,45.77
2018-12-26T05:44:53.404Z,40.33
2018-12-26T05:47:24.290Z,35.93
2018-12-26T05:49:55.175Z,31.70
2018-12-26T05:52:26.102Z,36.90
2018-12-26T05:54:57.650Z,35.03
2018-12-26T05:57:28.585Z,40.00
2018-12-26T05:59:59.479Z,39.57
2018-12-26T06:02:30.344Z,36.47
2018-12-26T06:05:01.272Z,30.93
2018-12-26T06:07:32.194Z,34.23
2018-12-26T06:10:03.448Z,37.53
2018-12-26T06:12:34.335Z,33.40
2018-12-26T06:15:05.330Z,32.30
2018-12-26T06:17:36.447Z,40.77
2018-12-26T06:20:07.572Z,36.77
2018-12-26T06:22:38.494Z,29.50
2018-12-26T06:25:09.425Z,34.33
2018-12-26T06:27:40.373Z,31.73
2018-12-26T06:30:11.469Z,32.53
2018-12-26T06:32:42.470Z,34.43
2018-12-26T06:35:13.462Z,31.87
2018-12-26T06:37:44.347Z,35.90
2018-12-26T06:40:15.266Z,33.80
2018-12-26T06:42:46.199Z,34.30
2018-12-26T06:45:17.079Z,43.60
2018-12-26T06:47:48.161Z,34.43
2018-12-26T06:50:19.055Z,33.00
2018-12-26T06:52:49.978Z,35.00
2018-12-26T06:55:20.871Z,37.13
2018-12-26T06:57:59.902Z,33.00
2018-12-26T07:00:24.393Z,36.43
2018-12-26T07:02:55.273Z,34.13
2018-12-26T07:05:26.230Z,37.37
2018-12-26T07:07:57.155Z,32.57
2018-12-26T07:10:28.062Z,36.40
2018-12-26T07:12:59.538Z,44.43
2018-12-26T07:15:30.445Z,33.67
2018-12-26T07:18:01.381Z,39.03
2018-12-26T07:20:32.282Z,40.23
2018-12-26T07:23:03.174Z,33.47
2018-12-26T07:25:34.067Z,39.70
2018-12-26T07:28:09.252Z,43.93
2018-12-26T07:30:37.870Z,32.97
2018-12-26T07:33:08.778Z,36.77
2018-12-26T07:35:39.693Z,35.23
2018-12-26T07:38:10.626Z,34.53
2018-12-26T07:40:42.068Z,32.70
2018-12-26T07:43:13.079Z,45.83
2018-12-26T07:45:43.974Z,39.83
2018-12-26T07:48:14.947Z,38.87
2018-12-26T07:50:46.164Z,36.90
2018-12-26T07:53:17.337Z,38.57
2018-12-26T07:55:48.257Z,36.73
2018-12-26T07:58:19.136Z,39.10
2018-12-26T08:00:50.071Z,31.83
2018-12-26T08:03:21.258Z,35.60
2018-12-26T08:05:52.717Z,36.50
2018-12-26T08:08:23.624Z,33.60
2018-12-26T08:10:54.604Z,39.20
2018-12-26T08:13:25.543Z,31.60
2018-12-26T08:15:56.439Z,39.73
2018-12-26T08:18:27.551Z,34.77
2018-12-26T08:20:58.437Z,33.73
2018-12-26T08:23:29.324Z,32.80
2018-12-26T08:26:00.229Z,34.57
2018-12-26T08:28:31.118Z,33.47
2018-12-26T08:31:02.015Z,33.37
2018-12-26T08:33:32.904Z,34.33
2018-12-26T08:36:04.124Z,37.53
2018-12-26T08:38:35.314Z,30.90
2018-12-26T08:41:06.236Z,31.70
2018-12-26T08:43:37.419Z,29.17
2018-12-26T08:46:08.604Z,32.80
2018-12-26T08:48:39.502Z,28.80
2018-12-26T08:51:10.407Z,28.77
2018-12-26T08:53:41.632Z,30.73
2018-12-26T08:56:12.598Z,31.43
2018-12-26T08:58:43.474Z,29.23
2018-12-26T09:01:14.425Z,33.43
2018-12-26T09:03:45.305Z,35.57
2018-12-26T09:06:16.480Z,33.37
2018-12-26T09:08:47.391Z,36.50
2018-12-26T09:11:18.282Z,39.13
2018-12-26T09:13:49.281Z,35.73
2018-12-26T09:16:20.740Z,35.53
2018-12-26T09:18:51.640Z,36.73
2018-12-26T09:21:22.848Z,36.37
2018-12-26T09:23:53.732Z,42.03
2018-12-26T09:26:24.649Z,39.73
2018-12-26T09:28:55.527Z,44.87
2018-12-26T09:31:26.403Z,41.43
2018-12-26T09:33:57.650Z,43.67
2018-12-26T09:36:28.539Z,44.43
2018-12-26T09:39:00.063Z,55.87
2018-12-26T09:41:30.962Z,48.57
2018-12-26T09:44:01.924Z,55.20
2018-12-26T09:46:32.834Z,53.23
2018-12-26T09:49:03.721Z,58.63
2018-12-26T09:51:34.962Z,58.73
2018-12-26T09:54:05.864Z,58.33
2018-12-26T09:56:36.733Z,60.73
2018-12-26T09:59:07.661Z,60.93
2018-12-26T10:01:38.555Z,70.80
2018-12-26T10:04:09.536Z,65.27
2018-12-26T10:06:40.461Z,68.00
2018-12-26T10:09:11.344Z,71.07
2018-12-26T10:11:42.250Z,65.43
2018-12-26T10:14:13.174Z,66.60
2018-12-26T10:16:44.152Z,61.60
2018-12-26T10:19:15.071Z,61.83
2018-12-26T10:21:46.231Z,56.67
2018-12-26T10:24:17.164Z,61.40
2018-12-26T10:26:48.411Z,64.80
2018-12-26T10:29:19.343Z,62.20
2018-12-26T10:31:50.254Z,57.33
2018-12-26T10:34:21.419Z,61.60
2018-12-26T10:36:52.436Z,60.60
2018-12-26T10:39:23.341Z,64.63
2018-12-26T10:41:54.311Z,59.87
2018-12-26T10:44:25.252Z,69.80
2018-12-26T10:46:56.229Z,70.73
2018-12-26T10:49:27.137Z,64.90
2018-12-26T10:51:58.025Z,63.23
2018-12-26T10:54:29.049Z,79.43
2018-12-26T10:56:59.924Z,70.50
2018-12-26T10:59:31.081Z,76.30
2018-12-26T11:02:01.998Z,71.37
2018-12-26T11:04:33.186Z,86.57
2018-12-26T11:07:04.113Z,82.73
2018-12-26T11:09:35.031Z,83.00
2018-12-26T11:12:05.955Z,76.87
2018-12-26T11:14:37.305Z,82.47
2018-12-26T11:17:08.677Z,89.57
2018-12-26T11:19:39.716Z,83.43
2018-12-26T11:22:10.585Z,89.17
2018-12-26T11:24:41.469Z,89.23
2018-12-26T11:27:12.389Z,98.10
2018-12-26T11:29:43.856Z,94.27
2018-12-26T11:32:15.380Z,91.47
2018-12-26T11:34:46.288Z,90.70
2018-12-26T11:37:17.201Z,96.50
2018-12-26T11:39:48.541Z,111.80
2018-12-26T11:42:19.716Z,97.67
2018-12-26T11:44:50.671Z,107.13
2018-12-26T11:47:21.563Z,100.13
2018-12-26T11:49:52.483Z,99.20
2018-12-26T11:52:23.418Z,109.37
2018-12-26T11:54:54.425Z,98.77
2018-12-26T11:57:25.353Z,105.67
2018-12-26T11:59:56.237Z,102.40
2018-12-26T12:02:27.151Z,90.47
2018-12-26T12:04:58.357Z,104.63
2018-12-26T12:07:29.275Z,98.40
2018-12-26T12:10:00.448Z,95.47
2018-12-26T12:12:31.401Z,101.03
2018-12-26T12:15:02.489Z,99.53
2018-12-26T12:17:33.372Z,99.97
2018-12-26T12:20:05.116Z,94.47
2018-12-26T12:22:35.998Z,105.13
2018-12-26T12:25:06.974Z,101.40
2018-12-26T12:27:38.784Z,102.67
2018-12-26T12:30:09.827Z,110.73
2018-12-26T12:32:40.770Z,98.57
2018-12-26T12:35:11.805Z,94.13
2018-12-26T12:37:42.966Z,94.90
2018-12-26T12:40:14.412Z,100.37
2018-12-26T12:42:45.821Z,95.97
2018-12-26T12:45:17.030Z,97.90
2018-12-26T12:47:47.906Z,74.23
2018-12-26T12:50:18.836Z,77.73
2018-12-26T12:52:49.697Z,90.97
2018-12-26T12:55:20.659Z,76.10
2018-12-26T12:57:52.090Z,85.80
2018-12-26T13:00:23.021Z,77.47
2018-12-26T13:03:00.337Z,86.67
2018-12-26T13:05:26.835Z,74.23
2018-12-26T13:07:57.758Z,79.53
2018-12-26T13:10:28.636Z,75.37
2018-12-26T13:12:59.526Z,96.93
2018-12-26T13:15:30.468Z,79.00
2018-12-26T13:18:01.361Z,78.70
2018-12-26T13:20:32.566Z,92.20
2018-12-26T13:23:03.438Z,86.83
2018-12-26T13:25:34.613Z,98.00
2018-12-26T13:28:05.524Z,99.87
2018-12-26T13:30:49.083Z,89.87
2018-12-26T13:33:19.983Z,92.47
2018-12-26T13:35:50.884Z,101.60
2018-12-26T13:38:22.014Z,90.60
2018-12-26T13:40:53.295Z,96.80
2018-12-26T13:43:24.551Z,92.23
2018-12-26T13:45:55.460Z,95.60
2018-12-26T13:48:26.355Z,99.03
2018-12-26T13:50:57.280Z,100.50
2018-12-26T13:53:29.567Z,101.63
2018-12-26T13:56:00.598Z,96.73
2018-12-26T13:58:31.457Z,94.50
2018-12-26T14:01:02.332Z,93.30
2018-12-26T14:03:33.270Z,109.47
2018-12-26T14:06:04.186Z,106.97
2018-12-26T14:08:37.994Z,95.47
2018-12-26T14:11:08.878Z,103.57
2018-12-26T14:13:39.767Z,104.83
2018-12-26T14:16:10.715Z,105.90
2018-12-26T14:18:41.585Z,110.57
2018-12-26T14:21:12.818Z,107.13
2018-12-26T14:23:43.693Z,110.27
2018-12-26T14:26:14.695Z,111.07
2018-12-26T14:28:45.619Z,113.67
2018-12-26T14:31:16.512Z,97.30
2018-12-26T14:33:47.456Z,107.63
2018-12-26T14:36:18.359Z,97.37
2018-12-26T14:38:49.279Z,121.63
2018-12-26T14:41:20.205Z,103.70
2018-12-26T14:43:51.389Z,109.10
2018-12-26T14:46:22.321Z,115.97
2018-12-26T14:48:53.230Z,103.80
2018-12-26T14:51:26.564Z,89.70
2018-12-26T14:53:57.012Z,100.47
2018-12-26T14:56:27.913Z,114.63
2018-12-26T14:58:59.132Z,118.60
2018-12-26T15:01:30.042Z,105.70
2018-12-26T15:04:00.944Z,116.07
2018-12-26T15:06:32.182Z,103.00
2018-12-26T15:09:03.371Z,85.37
2018-12-26T15:11:34.646Z,101.57
2018-12-26T15:14:05.695Z,102.57
2018-12-26T15:16:36.665Z,102.33
2018-12-26T15:19:20.926Z,101.83
2018-12-26T15:21:51.905Z,88.37
2018-12-26T15:24:22.983Z,96.50
2018-12-26T15:26:53.896Z,92.27
2018-12-26T15:29:25.082Z,93.40
2018-12-26T15:31:56.058Z,90.17
2018-12-26T15:34:27.256Z,98.57
2018-12-26T15:36:58.206Z,96.67
2018-12-26T15:39:29.087Z,95.03
2018-12-26T15:42:00.049Z,109.57
2018-12-26T15:44:30.951Z,99.60
2018-12-26T15:47:01.880Z,96.47
2018-12-26T15:49:32.866Z,92.07
2018-12-26T15:52:04.342Z,80.97
2018-12-26T15:54:35.225Z,89.27
2018-12-26T15:57:06.149Z,93.03
2018-12-26T15:59:37.123Z,113.70
2018-12-26T16:02:08.446Z,97.03
2018-12-26T16:04:39.621Z,103.37
2018-12-26T16:07:10.546Z,102.47
2018-12-26T16:09:41.432Z,91.13
2018-12-26T16:12:12.616Z,91.43
2018-12-26T16:14:43.868Z,92.17
2018-12-26T16:17:15.084Z,98.57
2018-12-26T16:19:46.001Z,102.47
2018-12-26T16:22:16.913Z,98.13
2018-12-26T16:24:47.834Z,95.00
2018-12-26T16:27:18.812Z,87.23
2018-12-26T16:29:50.037Z,92.60
2018-12-26T16:32:20.982Z,89.10
2018-12-26T16:34:51.883Z,98.43
2018-12-26T16:37:23.157Z,91.67
2018-12-26T16:39:54.124Z,99.30
2018-12-26T16:42:25.023Z,92.87
2018-12-26T16:44:56.240Z,91.07
2018-12-26T16:47:27.107Z,91.27
2018-12-26T16:49:58.006Z,97.90
2018-12-26T16:52:28.904Z,88.60
2018-12-26T16:54:59.820Z,100.93
2018-12-26T16:57:30.793Z,92.83
2018-12-26T17:00:01.687Z,86.70
2018-12-26T17:02:32.687Z,87.60
2018-12-26T17:05:03.602Z,83.40
2018-12-26T17:07:34.508Z,87.87
2018-12-26T17:10:05.784Z,88.63
2018-12-26T17:12:36.660Z,87.53
2018-12-26T17:15:07.872Z,90.00
2018-12-26T17:17:38.795Z,103.03
2018-12-26T17:20:09.834Z,96.47
2018-12-26T17:22:41.155Z,102.17
2018-12-26T17:25:12.073Z,99.13
2018-12-26T17:27:42.969Z,88.60
2018-12-26T17:30:14.561Z,103.03
2018-12-26T17:32:45.735Z,89.43
2018-12-26T17:35:16.829Z,88.37
2018-12-26T17:37:47.719Z,101.90
2018-12-26T17:40:18.639Z,92.00
2018-12-26T17:42:49.841Z,92.10
2018-12-26T17:45:25.060Z,88.63
2018-12-26T17:47:56.106Z,90.70
2018-12-26T17:50:51.580Z,98.03
2018-12-26T17:54:01.187Z,87.57
2018-12-26T17:56:56.026Z,87.57
2018-12-26T17:59:38.828Z,79.80
2018-12-26T18:02:22.987Z,80.47
2018-12-26T18:04:53.991Z,88.77
2018-12-26T18:07:25.194Z,91.73
2018-12-26T18:09:56.448Z,90.80
2018-12-26T18:12:27.383Z,84.03
2018-12-26T18:14:58.296Z,92.93
2018-12-26T18:17:29.270Z,80.57
2018-12-26T18:20:00.513Z,80.20
2018-12-26T18:22:31.460Z,80.27
2018-12-26T18:25:02.368Z,84.80
2018-12-26T18:27:33.289Z,78.53
2018-12-26T18:30:05.722Z,71.37
2018-12-26T18:32:36.594Z,76.87
2018-12-26T18:35:08.543Z,70.77
2018-12-26T18:37:39.458Z,88.63
2018-12-26T18:40:10.843Z,73.93
2018-12-26T18:42:41.837Z,94.93
2018-12-26T18:45:13.084Z,70.67
2018-12-26T18:47:43.981Z,77.80
2018-12-26T18:50:15.212Z,62.67
2018-12-26T18:52:46.090Z,80.33
2018-12-26T18:55:17.102Z,63.77
2018-12-26T18:57:48.018Z,87.50
2018-12-26T19:00:18.900Z,75.87
2018-12-26T19:02:49.836Z,73.40
2018-12-26T19:05:20.742Z,105.43
2018-12-26T19:07:51.711Z,77.03
2018-12-26T19:10:22.597Z,77.37
2018-12-26T19:12:54.091Z,88.43
2018-12-26T19:15:25.331Z,78.87
2018-12-26T19:17:56.243Z,75.20
2018-12-26T19:20:27.441Z,71.27
2018-12-26T19:22:58.311Z,71.87
2018-12-26T19:25:29.215Z,64.47
2018-12-26T19:28:00.172Z,71.77
2018-12-26T19:30:31.148Z,59.60
2018-12-26T19:33:02.115Z,67.53
2018-12-26T19:35:33.009Z,88.93
2018-12-26T19:38:03.931Z,64.57
2018-12-26T19:40:35.098Z,62.57
2018-12-26T19:43:06.341Z,57.90
2018-12-26T19:45:37.214Z,59.20
2018-12-26T19:48:08.121Z,54.10
2018-12-26T19:50:39.142Z,62.97
2018-12-26T19:53:10.361Z,57.40
2018-12-26T19:55:41.294Z,51.90
2018-12-26T19:58:12.192Z,50.50
2018-12-26T20:00:43.501Z,53.67
2018-12-26T20:03:14.447Z,53.00
2018-12-26T20:05:45.339Z,62.83
2018-12-26T20:08:16.269Z,77.90
2018-12-26T20:10:47.455Z,64.50
2018-12-26T20:13:18.368Z,62.93
2018-12-26T20:15:49.277Z,54.70
2018-12-26T20:18:20.270Z,57.70
2018-12-26T20:20:51.195Z,51.03
2018-12-26T20:23:22.166Z,52.37
2018-12-26T20:25:53.185Z,50.73
2018-12-26T20:28:24.383Z,57.23
2018-12-26T20:30:55.629Z,48.33
2018-12-26T20:33:26.599Z,50.37
2018-12-26T20:35:57.489Z,52.20
2018-12-26T20:38:28.410Z,47.33
2018-12-26T20:40:59.283Z,46.67
2018-12-26T20:43:30.209Z,48.80
2018-12-26T20:46:01.167Z,47.77
2018-12-26T20:48:32.106Z,43.37
2018-12-26T20:51:03.274Z,42.50
2018-12-26T20:53:34.435Z,50.57
2018-12-26T20:56:05.631Z,44.97
2018-12-26T20:58:36.793Z,44.80
2018-12-26T21:01:07.707Z,45.70
2018-12-26T21:03:38.643Z,45.17
2018-12-26T21:06:09.574Z,43.73
2018-12-26T21:08:40.580Z,46.63
2018-12-26T21:11:11.748Z,45.97
2018-12-26T21:13:43.811Z,40.73
2018-12-26T21:16:14.897Z,45.53
2018-12-26T21:18:46.403Z,46.77
2018-12-26T21:21:17.355Z,36.57
2018-12-26T21:23:48.369Z,39.13
2018-12-26T21:26:19.274Z,39.20
2018-12-26T21:28:50.237Z,36.67
2018-12-26T21:31:21.268Z,40.70
2018-12-26T21:33:52.234Z,66.03
2018-12-26T21:36:23.128Z,46.63
2018-12-26T21:38:54.048Z,38.37
2018-12-26T21:41:25.017Z,46.17
2018-12-26T21:43:55.942Z,41.97
2018-12-26T21:46:27.132Z,44.47
2018-12-26T21:48:58.317Z,48.20
2018-12-26T21:51:29.317Z,41.80
2018-12-26T21:54:00.207Z,42.10
2018-12-26T21:56:31.153Z,41.20
2018-12-26T21:59:02.053Z,48.23
2018-12-26T22:01:33.016Z,46.00
2018-12-26T22:04:04.235Z,47.37
2018-12-26T22:06:35.440Z,55.10
2018-12-26T22:09:08.570Z,52.80
2018-12-26T22:11:39.746Z,53.27
2018-12-26T22:14:10.645Z,48.20
2018-12-26T22:16:41.607Z,48.60
2018-12-26T22:19:12.953Z,49.83
2018-12-26T22:21:43.998Z,55.10
2018-12-26T22:24:14.912Z,50.30
2018-12-26T22:26:45.808Z,56.20
2018-12-26T22:29:16.720Z,49.03
2018-12-26T22:31:47.642Z,49.67
2018-12-26T22:34:18.572Z,56.00
2018-12-26T22:36:49.478Z,53.10
2018-12-26T22:39:20.720Z,57.60
2018-12-26T22:41:51.651Z,49.97
2018-12-26T22:44:27.759Z,53.57
2018-12-26T22:46:55.187Z,56.17
2018-12-26T22:49:26.107Z,51.50
2018-12-26T22:51:57.013Z,48.80
2018-12-26T22:54:27.945Z,54.73
2018-12-26T22:56:59.147Z,53.10
2018-12-26T22:59:30.370Z,57.70
2018-12-26T23:02:01.617Z,65.03
2018-12-26T23:04:32.582Z,78.60
2018-12-26T23:07:03.543Z,58.13
2018-12-26T23:09:34.749Z,70.23
2018-12-26T23:12:05.678Z,61.97
2018-12-26T23:14:36.577Z,58.20
2018-12-26T23:17:07.544Z,75.93
2018-12-26T23:19:38.442Z,61.20
2018-12-26T23:22:09.326Z,60.40
2018-12-26T23:24:40.550Z,61.67
2018-12-26T23:27:11.455Z,63.83
2018-12-26T23:29:42.383Z,59.47
2018-12-26T23:32:13.274Z,54.70
2018-12-26T23:34:44.249Z,52.50
2018-12-26T23:37:15.192Z,48.43
2018-12-26T23:39:46.407Z,48.80
2018-12-26T23:42:17.375Z,54.30
2018-12-26T23:44:48.826Z,54.80
2018-12-26T23:47:19.728Z,46.97
2018-12-26T23:49:50.985Z,54.07
2018-12-26T23:52:21.859Z,46.80
2018-12-26T23:54:53.112Z,56.60
2018-12-26T23:57:24.306Z,49.57
2018-12-26T23:59:55.182Z,48.30
